createdAt,value
2019-04-03T00:01:08.987Z,56.74
2019-04-03T00:03:38.492Z,55.90
2019-04-03T00:06:08.005Z,58.91
2019-04-03T00:08:37.524Z,61.75
2019-04-03T00:11:09.393Z,54.96
2019-04-03T00:13:41.483Z,55.41
2019-04-03T00:16:09.517Z,57.70
2019-04-03T00:18:39.030Z,61.45
2019-04-03T00:21:08.518Z,69.06
2019-04-03T00:23:38.065Z,63.50
2019-04-03T00:26:07.615Z,60.32
2019-04-03T00:28:37.094Z,61.61
2019-04-03T00:31:06.594Z,62.09
2019-04-03T00:33:36.239Z,66.19
2019-04-03T00:36:05.912Z,58.00
2019-04-03T00:38:35.585Z,72.38
2019-04-03T00:41:05.666Z,70.00
2019-04-03T00:43:35.114Z,65.35
2019-04-03T00:46:04.787Z,63.62
2019-04-03T00:48:34.294Z,58.64
2019-04-03T00:51:03.909Z,62.53
2019-04-03T00:53:33.413Z,59.68
2019-04-03T00:56:03.091Z,61.99
2019-04-03T00:58:43.133Z,64.00
2019-04-03T01:01:12.923Z,71.32
2019-04-03T01:03:42.900Z,67.27
2019-04-03T01:06:12.580Z,73.89
2019-04-03T01:08:42.115Z,73.29
2019-04-03T01:11:11.761Z,76.48
2019-04-03T01:13:41.378Z,73.72
2019-04-03T01:16:10.905Z,66.85
2019-04-03T01:18:40.389Z,67.18
2019-04-03T01:21:09.901Z,68.44
2019-04-03T01:23:39.389Z,66.30
2019-04-03T01:26:10.035Z,68.02
2019-04-03T01:28:41.694Z,79.59
2019-04-03T01:31:14.161Z,97.02
2019-04-03T01:33:46.077Z,100.00
2019-04-03T01:36:17.126Z,100.00
2019-04-03T01:38:46.358Z,100.00
2019-04-03T01:41:15.994Z,100.00
2019-04-03T01:43:45.461Z,100.00
2019-04-03T01:46:15.243Z,100.00
2019-04-03T01:48:44.762Z,100.00
2019-04-03T01:51:14.298Z,100.00
2019-04-03T01:53:43.785Z,100.00
2019-04-03T01:56:13.330Z,100.00
2019-04-03T01:58:43.431Z,100.00
2019-04-03T02:01:12.972Z,100.00
2019-04-03T02:03:42.504Z,100.00
2019-04-03T02:06:13.572Z,100.00
2019-04-03T02:08:44.953Z,100.00
2019-04-03T02:11:14.784Z,100.00
2019-04-03T02:13:44.295Z,100.00
2019-04-03T02:16:13.830Z,100.00
2019-04-03T02:18:43.340Z,100.00
2019-04-03T02:21:12.849Z,100.00
2019-04-03T02:23:42.472Z,100.00
2019-04-03T02:26:11.984Z,100.00
2019-04-03T02:28:41.485Z,100.00
2019-04-03T02:31:11.257Z,100.00
2019-04-03T02:33:40.762Z,100.00
2019-04-03T02:36:12.580Z,100.00
2019-04-03T02:38:41.775Z,100.00
2019-04-03T02:41:11.283Z,100.00
2019-04-03T02:43:41.103Z,100.00
2019-04-03T02:46:10.690Z,100.00
2019-04-03T02:48:40.170Z,100.00
2019-04-03T02:51:09.966Z,100.00
2019-04-03T02:53:39.546Z,100.00
2019-04-03T02:56:11.846Z,100.00
2019-04-03T02:58:40.358Z,100.00
2019-04-03T03:01:09.889Z,100.00
2019-04-03T03:03:39.398Z,100.00
2019-04-03T03:06:09.169Z,100.00
2019-04-03T03:08:41.647Z,100.00
2019-04-03T03:11:10.120Z,100.00
2019-04-03T03:13:39.959Z,100.00
2019-04-03T03:16:10.496Z,100.00
2019-04-03T03:18:40.442Z,100.00
2019-04-03T03:21:12.859Z,100.00
2019-04-03T03:23:42.190Z,100.00
2019-04-03T03:26:12.062Z,100.00
2019-04-03T03:28:46.821Z,100.00
2019-04-03T03:31:15.256Z,100.00
2019-04-03T03:33:46.708Z,100.00
2019-04-03T03:36:21.893Z,100.00
2019-04-03T03:38:48.439Z,100.00
2019-04-03T03:41:22.109Z,100.00
2019-04-03T03:43:49.851Z,100.00
2019-04-03T03:46:19.964Z,100.00
2019-04-03T03:48:50.506Z,100.00
2019-04-03T03:51:22.166Z,100.00
2019-04-03T03:53:52.072Z,100.00
2019-04-03T03:56:22.229Z,100.00
2019-04-03T03:58:53.137Z,100.00
2019-04-03T04:01:23.216Z,100.00
2019-04-03T04:03:53.615Z,100.00
2019-04-03T04:06:25.561Z,100.00
2019-04-03T04:08:54.787Z,100.00
2019-04-03T04:11:24.444Z,100.00
2019-04-03T04:13:54.649Z,100.00
2019-04-03T04:16:24.219Z,100.00
2019-04-03T04:18:57.378Z,100.00
2019-04-03T04:21:25.873Z,100.00
2019-04-03T04:23:57.228Z,100.00
2019-04-03T04:26:27.395Z,100.00
2019-04-03T04:28:57.039Z,100.00
2019-04-03T04:31:26.540Z,100.00
2019-04-03T04:33:56.099Z,100.00
2019-04-03T04:36:25.600Z,100.00
2019-04-03T04:38:55.804Z,100.00
2019-04-03T04:41:26.295Z,100.00
2019-04-03T04:43:55.877Z,100.00
2019-04-03T04:46:25.353Z,100.00
2019-04-03T04:48:54.853Z,100.00
2019-04-03T04:51:25.864Z,100.00
2019-04-03T04:53:55.627Z,100.00
2019-04-03T04:56:25.335Z,100.00
2019-04-03T04:58:55.040Z,100.00
2019-04-03T05:01:24.567Z,100.00
2019-04-03T05:03:54.556Z,100.00
2019-04-03T05:06:24.500Z,100.00
2019-04-03T05:08:55.127Z,100.00
2019-04-03T05:11:24.925Z,100.00
2019-04-03T05:13:54.440Z,100.00
2019-04-03T05:16:24.968Z,100.00
2019-04-03T05:18:55.414Z,100.00
2019-04-03T05:21:24.927Z,100.00
2019-04-03T05:23:56.070Z,100.00
2019-04-03T05:26:25.660Z,100.00
2019-04-03T05:28:57.622Z,100.00
2019-04-03T05:31:26.704Z,100.00
2019-04-03T05:33:56.485Z,100.00
2019-04-03T05:36:26.024Z,100.00
2019-04-03T05:38:56.192Z,100.00
2019-04-03T05:41:27.666Z,100.00
2019-04-03T05:43:56.952Z,100.00
2019-04-03T05:46:26.440Z,100.00
2019-04-03T05:48:55.967Z,100.00
2019-04-03T05:51:26.018Z,100.00
2019-04-03T05:53:55.531Z,100.00
2019-04-03T05:56:25.047Z,100.00
2019-04-03T05:58:57.239Z,100.00
2019-04-03T06:01:25.799Z,100.00
2019-04-03T06:03:55.400Z,100.00
2019-04-03T06:06:25.082Z,100.00
2019-04-03T06:08:56.477Z,100.00
2019-04-03T06:11:25.748Z,100.00
2019-04-03T06:13:55.264Z,100.00
2019-04-03T06:16:25.039Z,100.00
2019-04-03T06:18:54.536Z,100.00
2019-04-03T06:21:24.198Z,100.00
2019-04-03T06:23:53.975Z,100.00
2019-04-03T06:26:23.582Z,100.00
2019-04-03T06:28:53.046Z,100.00
2019-04-03T06:31:24.328Z,100.00
2019-04-03T06:33:54.397Z,100.00
2019-04-03T06:36:25.129Z,100.00
2019-04-03T06:38:56.155Z,100.00
2019-04-03T06:41:25.951Z,100.00
2019-04-03T06:43:55.464Z,100.00
2019-04-03T06:46:24.978Z,100.00
2019-04-03T06:48:55.660Z,100.00
2019-04-03T06:51:25.664Z,84.18
2019-04-03T06:53:55.172Z,85.09
2019-04-03T06:56:24.718Z,88.75
2019-04-03T06:58:54.266Z,90.96
2019-04-03T07:01:23.905Z,93.82
2019-04-03T07:03:53.592Z,89.26
2019-04-03T07:06:23.096Z,83.98
2019-04-03T07:08:52.722Z,81.80
2019-04-03T07:11:23.627Z,64.68
2019-04-03T07:13:54.567Z,54.08
2019-04-03T07:16:24.289Z,51.14
2019-04-03T07:18:53.795Z,46.37
2019-04-03T07:21:24.583Z,34.77
2019-04-03T07:23:54.522Z,31.97
2019-04-03T07:26:24.159Z,32.36
2019-04-03T07:28:53.785Z,30.76
2019-04-03T07:31:24.338Z,34.88
2019-04-03T07:33:54.074Z,35.93
2019-04-03T07:36:23.858Z,36.39
2019-04-03T07:38:53.394Z,32.66
2019-04-03T07:41:23.510Z,33.85
2019-04-03T07:43:53.071Z,31.91
2019-04-03T07:46:23.196Z,29.28
2019-04-03T07:48:53.576Z,28.82
2019-04-03T07:51:23.112Z,26.81
2019-04-03T07:53:52.946Z,31.54
2019-04-03T07:56:25.580Z,31.80
2019-04-03T07:58:53.679Z,33.19
2019-04-03T08:01:23.141Z,32.39
2019-04-03T08:03:53.406Z,30.40
2019-04-03T08:06:22.919Z,29.57
2019-04-03T08:09:05.590Z,25.06
2019-04-03T08:11:23.737Z,24.14
2019-04-03T08:13:53.397Z,26.95
2019-04-03T08:16:22.922Z,25.65
2019-04-03T08:18:52.509Z,26.71
2019-04-03T08:21:22.018Z,26.66
2019-04-03T08:23:52.797Z,26.93
2019-04-03T08:26:22.551Z,27.00
2019-04-03T08:28:52.080Z,25.86
2019-04-03T08:31:21.575Z,25.67
2019-04-03T08:33:51.715Z,25.03
2019-04-03T08:36:24.974Z,25.95
2019-04-03T08:38:53.028Z,25.61
2019-04-03T08:41:24.256Z,25.26
2019-04-03T08:43:53.868Z,27.16
2019-04-03T08:46:23.379Z,26.58
2019-04-03T08:48:55.129Z,25.34
2019-04-03T08:51:24.621Z,26.11
2019-04-03T08:53:54.929Z,25.30
2019-04-03T08:56:24.450Z,24.27
2019-04-03T08:58:54.848Z,24.98
2019-04-03T09:01:25.446Z,25.16
2019-04-03T09:03:55.036Z,26.55
2019-04-03T09:06:24.854Z,22.92
2019-04-03T09:08:57.186Z,22.12
2019-04-03T09:11:25.690Z,25.32
2019-04-03T09:13:55.804Z,19.15
2019-04-03T09:16:25.761Z,18.26
2019-04-03T09:18:55.269Z,22.57
2019-04-03T09:21:25.128Z,21.73
2019-04-03T09:23:57.160Z,18.76
2019-04-03T09:26:26.637Z,18.52
2019-04-03T09:28:56.123Z,19.72
2019-04-03T09:31:25.633Z,18.88
2019-04-03T09:33:56.968Z,18.22
2019-04-03T09:36:26.352Z,17.17
2019-04-03T09:38:55.952Z,17.32
2019-04-03T09:41:25.434Z,16.72
2019-04-03T09:43:54.968Z,18.74
2019-04-03T09:46:24.636Z,18.22
2019-04-03T09:48:54.237Z,20.14
2019-04-03T09:51:23.751Z,17.51
2019-04-03T09:53:53.251Z,18.13
2019-04-03T09:56:23.359Z,18.57
2019-04-03T09:58:55.772Z,18.29
2019-04-03T10:01:24.070Z,18.57
2019-04-03T10:03:55.088Z,18.29
2019-04-03T10:06:24.826Z,17.50
2019-04-03T10:08:54.626Z,18.17
2019-04-03T10:11:24.310Z,14.59
2019-04-03T10:13:56.541Z,14.73
2019-04-03T10:16:25.348Z,19.51
2019-04-03T10:18:54.884Z,15.82
2019-04-03T10:21:24.467Z,15.33
2019-04-03T10:23:53.971Z,17.22
2019-04-03T10:26:23.463Z,18.79
2019-04-03T10:28:52.997Z,15.82
2019-04-03T10:31:24.225Z,18.49
2019-04-03T10:33:54.078Z,20.52
2019-04-03T10:36:23.609Z,19.42
2019-04-03T10:38:53.105Z,20.46
2019-04-03T10:41:22.598Z,21.32
2019-04-03T10:43:52.263Z,21.08
2019-04-03T10:46:21.777Z,16.59
2019-04-03T10:48:51.285Z,16.31
2019-04-03T10:51:20.964Z,21.65
2019-04-03T10:53:51.467Z,18.04
2019-04-03T10:56:21.682Z,20.42
2019-04-03T10:58:51.228Z,20.36
2019-04-03T11:01:20.724Z,15.92
2019-04-03T11:03:50.224Z,15.33
2019-04-03T11:06:21.224Z,14.38
2019-04-03T11:08:51.029Z,15.86
2019-04-03T11:11:20.510Z,16.79
2019-04-03T11:13:50.113Z,16.34
2019-04-03T11:16:19.662Z,18.10
2019-04-03T11:18:58.477Z,16.03
2019-04-03T11:21:20.842Z,20.99
2019-04-03T11:23:50.347Z,20.12
2019-04-03T11:26:23.657Z,20.14
2019-04-03T11:28:51.410Z,19.01
2019-04-03T11:31:26.987Z,16.33
2019-04-03T11:33:52.450Z,20.86
2019-04-03T11:36:24.788Z,14.34
2019-04-03T11:38:53.446Z,20.25
2019-04-03T11:41:24.369Z,13.22
2019-04-03T11:43:54.177Z,13.36
2019-04-03T11:46:24.137Z,12.86
2019-04-03T11:48:53.652Z,12.85
2019-04-03T11:51:23.310Z,15.08
2019-04-03T11:53:52.739Z,16.46
2019-04-03T11:56:22.313Z,18.26
2019-04-03T11:58:52.434Z,15.86
2019-04-03T12:01:23.542Z,12.48
2019-04-03T12:03:53.032Z,12.93
2019-04-03T12:06:22.569Z,13.79
2019-04-03T12:08:52.364Z,18.14
2019-04-03T12:11:21.851Z,19.68
2019-04-03T12:13:51.786Z,17.29
2019-04-03T12:16:23.982Z,16.11
2019-04-03T12:18:52.871Z,14.33
2019-04-03T12:21:22.397Z,13.26
2019-04-03T12:23:51.903Z,12.78
2019-04-03T12:26:21.546Z,13.86
2019-04-03T12:28:51.055Z,13.03
2019-04-03T12:31:20.571Z,14.11
2019-04-03T12:33:56.418Z,13.53
2019-04-03T12:36:21.490Z,15.15
2019-04-03T12:38:52.662Z,16.56
2019-04-03T12:41:22.503Z,17.42
2019-04-03T12:43:52.723Z,18.08
2019-04-03T12:46:24.146Z,18.37
2019-04-03T12:48:53.610Z,18.16
2019-04-03T12:51:23.179Z,18.22
2019-04-03T12:53:52.691Z,18.08
2019-04-03T12:56:24.616Z,20.48
2019-04-03T12:58:53.447Z,19.40
2019-04-03T13:01:23.414Z,19.55
2019-04-03T13:03:56.075Z,19.12
2019-04-03T13:06:24.582Z,19.53
2019-04-03T13:08:54.088Z,19.08
2019-04-03T13:11:23.662Z,19.53
2019-04-03T13:13:53.181Z,19.59
2019-04-03T13:16:22.687Z,19.94
2019-04-03T13:18:52.200Z,20.54
2019-04-03T13:21:21.740Z,21.00
2019-04-03T13:23:51.221Z,20.52
2019-04-03T13:26:24.059Z,20.56
2019-04-03T13:28:52.189Z,20.39
2019-04-03T13:31:21.870Z,20.94
2019-04-03T13:33:51.369Z,20.70
2019-04-03T13:36:23.720Z,21.17
2019-04-03T13:38:52.354Z,21.68
2019-04-03T13:41:21.842Z,21.82
2019-04-03T13:43:53.820Z,21.80
2019-04-03T13:46:22.566Z,21.81
2019-04-03T13:48:52.942Z,21.95
2019-04-03T13:51:24.107Z,22.29
2019-04-03T13:53:53.996Z,22.00
2019-04-03T13:56:24.655Z,22.58
2019-04-03T13:58:54.866Z,22.49
2019-04-03T14:01:27.181Z,22.46
2019-04-03T14:03:55.613Z,22.50
2019-04-03T14:06:25.490Z,22.07
2019-04-03T14:08:55.252Z,22.86
2019-04-03T14:11:24.780Z,22.84
2019-04-03T14:13:54.298Z,22.77
2019-04-03T14:16:23.835Z,22.81
2019-04-03T14:18:53.347Z,22.41
2019-04-03T14:21:23.247Z,22.60
2019-04-03T14:23:53.107Z,22.16
2019-04-03T14:26:22.642Z,22.79
2019-04-03T14:28:52.129Z,22.75
2019-04-03T14:31:33.568Z,23.13
2019-04-03T14:33:53.014Z,23.08
2019-04-03T14:36:22.532Z,23.52
2019-04-03T14:38:52.464Z,23.64
2019-04-03T14:41:21.983Z,24.13
2019-04-03T14:43:51.481Z,23.95
2019-04-03T14:46:21.205Z,23.73
2019-04-03T14:48:50.977Z,24.09
2019-04-03T14:51:20.523Z,24.43
2019-04-03T14:53:52.213Z,24.10
2019-04-03T14:56:21.941Z,23.95
2019-04-03T14:58:51.619Z,24.39
2019-04-03T15:01:21.352Z,24.84
2019-04-03T15:03:50.815Z,24.56
2019-04-03T15:06:20.319Z,25.13
2019-04-03T15:08:50.228Z,25.42
2019-04-03T15:11:21.791Z,25.06
2019-04-03T15:13:51.568Z,25.13
2019-04-03T15:16:21.152Z,24.79
2019-04-03T15:18:50.640Z,24.92
2019-04-03T15:21:22.214Z,24.89
2019-04-03T15:23:51.365Z,25.09
2019-04-03T15:26:22.218Z,25.47
2019-04-03T15:28:52.454Z,25.79
2019-04-03T15:31:23.895Z,25.53
2019-04-03T15:33:55.433Z,25.70
2019-04-03T15:36:24.518Z,26.24
2019-04-03T15:38:54.361Z,26.34
2019-04-03T15:41:23.966Z,26.65
2019-04-03T15:43:53.473Z,26.57
2019-04-03T15:46:23.093Z,26.97
2019-04-03T15:48:53.495Z,27.05
2019-04-03T15:51:24.190Z,27.01
2019-04-03T15:53:53.784Z,26.98
2019-04-03T15:56:23.315Z,26.92
2019-04-03T15:58:53.096Z,26.93
2019-04-03T16:01:22.661Z,27.20
2019-04-03T16:03:52.444Z,27.37
2019-04-03T16:06:22.342Z,27.47
2019-04-03T16:08:53.529Z,27.89
2019-04-03T16:11:23.120Z,27.88
2019-04-03T16:13:52.651Z,27.55
2019-04-03T16:16:22.154Z,27.71
2019-04-03T16:18:51.670Z,27.81
2019-04-03T16:21:22.380Z,28.01
2019-04-03T16:23:52.388Z,28.05
2019-04-03T16:26:23.897Z,27.84
2019-04-03T16:28:53.320Z,28.29
2019-04-03T16:31:22.793Z,28.54
2019-04-03T16:33:52.395Z,28.80
2019-04-03T16:36:22.079Z,28.84
2019-04-03T16:38:51.709Z,29.73
2019-04-03T16:41:21.258Z,29.80
2019-04-03T16:43:50.735Z,29.70
2019-04-03T16:46:20.225Z,29.86
2019-04-03T16:48:50.853Z,30.08
2019-04-03T16:51:20.702Z,30.00
2019-04-03T16:53:50.575Z,29.88
2019-04-03T16:56:20.109Z,30.17
2019-04-03T16:58:50.092Z,30.34
2019-04-03T17:01:19.607Z,30.45
2019-04-03T17:03:49.361Z,30.73
2019-04-03T17:06:18.896Z,30.76
2019-04-03T17:08:48.840Z,30.99
2019-04-03T17:11:18.287Z,30.87
2019-04-03T17:13:47.797Z,31.33
2019-04-03T17:16:17.754Z,31.51
2019-04-03T17:18:47.861Z,31.67
2019-04-03T17:21:17.791Z,31.59
2019-04-03T17:23:47.340Z,31.94
2019-04-03T17:26:17.276Z,32.24
2019-04-03T17:28:46.809Z,32.49
2019-04-03T17:31:16.879Z,33.17
2019-04-03T17:33:46.402Z,33.48
2019-04-03T17:36:17.715Z,33.68
2019-04-03T17:38:48.048Z,34.03
2019-04-03T17:41:18.059Z,34.12
2019-04-03T17:43:47.587Z,34.21
2019-04-03T17:46:17.736Z,34.83
2019-04-03T17:48:47.770Z,35.05
2019-04-03T17:51:17.259Z,35.23
2019-04-03T17:53:46.775Z,35.70
2019-04-03T17:56:16.291Z,35.69
2019-04-03T17:58:47.936Z,35.87
2019-04-03T18:01:17.510Z,36.22
2019-04-03T18:03:47.842Z,36.66
2019-04-03T18:06:18.585Z,37.18
2019-04-03T18:08:48.255Z,37.18
2019-04-03T18:11:17.849Z,37.06
2019-04-03T18:13:48.736Z,37.30
2019-04-03T18:16:18.272Z,37.42
2019-04-03T18:18:49.888Z,37.97
2019-04-03T18:21:19.028Z,37.96
2019-04-03T18:23:48.534Z,38.31
2019-04-03T18:26:18.023Z,38.26
2019-04-03T18:28:47.557Z,38.80
2019-04-03T18:31:17.057Z,39.04
2019-04-03T18:33:46.833Z,39.20
2019-04-03T18:36:17.794Z,39.79
2019-04-03T18:38:47.333Z,39.52
2019-04-03T18:41:17.421Z,39.75
2019-04-03T18:43:47.016Z,40.48
2019-04-03T18:46:22.036Z,40.14
2019-04-03T18:48:53.590Z,40.73
2019-04-03T18:51:20.311Z,40.70
2019-04-03T18:53:49.937Z,40.97
2019-04-03T18:56:19.487Z,40.86
2019-04-03T18:58:49.004Z,40.89
2019-04-03T19:01:18.526Z,40.98
2019-04-03T19:03:48.032Z,40.57
2019-04-03T19:06:17.516Z,40.80
2019-04-03T19:08:49.768Z,41.16
2019-04-03T19:11:18.303Z,40.96
2019-04-03T19:13:49.452Z,41.18
2019-04-03T19:16:29.000Z,41.61
2019-04-03T19:18:50.765Z,41.52
2019-04-03T19:21:24.259Z,42.22
2019-04-03T19:23:53.693Z,42.16
2019-04-03T19:26:22.758Z,42.22
2019-04-03T19:28:52.264Z,42.69
2019-04-03T19:31:21.793Z,44.03
2019-04-03T19:33:51.295Z,46.89
2019-04-03T19:36:21.808Z,45.46
2019-04-03T19:38:53.500Z,52.94
2019-04-03T19:41:22.515Z,60.48
2019-04-03T19:43:52.048Z,66.11
2019-04-03T19:46:22.850Z,70.19
2019-04-03T19:48:52.791Z,74.46
2019-04-03T19:51:22.302Z,75.44
2019-04-03T19:53:59.157Z,78.43
2019-04-03T19:56:25.726Z,81.27
2019-04-03T19:58:54.258Z,75.79
2019-04-03T20:01:24.107Z,81.35
2019-04-03T20:03:53.610Z,85.95
2019-04-03T20:06:23.287Z,89.38
2019-04-03T20:08:52.789Z,100.00
2019-04-03T20:11:22.275Z,100.00
2019-04-03T20:13:51.789Z,100.00
2019-04-03T20:16:24.234Z,100.00
2019-04-03T20:18:52.530Z,100.00
2019-04-03T20:21:22.023Z,100.00
2019-04-03T20:23:51.526Z,100.00
2019-04-03T20:26:21.010Z,100.00
2019-04-03T20:28:50.518Z,100.00
2019-04-03T20:31:20.044Z,100.00
2019-04-03T20:33:49.669Z,100.00
2019-04-03T20:36:20.367Z,100.00
2019-04-03T20:38:50.371Z,100.00
2019-04-03T20:41:19.880Z,100.00
2019-04-03T20:43:49.663Z,100.00
2019-04-03T20:46:19.172Z,100.00
2019-04-03T20:48:48.708Z,100.00
2019-04-03T20:51:18.197Z,100.00
2019-04-03T20:53:48.164Z,100.00
2019-04-03T20:56:18.933Z,100.00
2019-04-03T20:58:55.757Z,100.00
2019-04-03T21:01:19.700Z,100.00
2019-04-03T21:03:49.196Z,100.00
2019-04-03T21:06:20.276Z,100.00
2019-04-03T21:08:49.922Z,100.00
2019-04-03T21:11:19.523Z,100.00
2019-04-03T21:13:49.015Z,100.00
2019-04-03T21:16:18.531Z,100.00
2019-04-03T21:18:48.094Z,100.00
2019-04-03T21:21:17.603Z,100.00
2019-04-03T21:23:47.093Z,100.00
2019-04-03T21:26:16.610Z,100.00
2019-04-03T21:28:46.103Z,100.00
2019-04-03T21:31:15.596Z,100.00
2019-04-03T21:33:45.341Z,100.00
2019-04-03T21:36:14.854Z,100.00
2019-04-03T21:38:44.374Z,100.00
2019-04-03T21:41:13.884Z,100.00
2019-04-03T21:43:43.377Z,100.00
2019-04-03T21:46:12.883Z,100.00
2019-04-03T21:48:44.485Z,100.00
2019-04-03T21:51:13.602Z,100.00
2019-04-03T21:53:43.099Z,100.00
2019-04-03T21:56:12.603Z,100.00
2019-04-03T21:58:42.121Z,100.00
2019-04-03T22:01:19.541Z,100.00
2019-04-03T22:03:51.357Z,100.00
2019-04-03T22:06:20.559Z,100.00
2019-04-03T22:08:51.657Z,100.00
2019-04-03T22:11:21.342Z,100.00
2019-04-03T22:13:50.822Z,100.00
2019-04-03T22:16:20.645Z,100.00
2019-04-03T22:18:51.161Z,100.00
2019-04-03T22:21:20.773Z,100.00
2019-04-03T22:23:50.277Z,100.00
2019-04-03T22:26:19.773Z,100.00
2019-04-03T22:28:49.253Z,100.00
2019-04-03T22:31:20.931Z,100.00
2019-04-03T22:33:50.529Z,100.00
2019-04-03T22:36:20.029Z,100.00
2019-04-03T22:38:49.581Z,100.00
2019-04-03T22:41:19.089Z,100.00
2019-04-03T22:43:48.667Z,100.00
2019-04-03T22:46:18.174Z,100.00
2019-04-03T22:48:47.665Z,100.00
2019-04-03T22:51:17.195Z,100.00
2019-04-03T22:53:46.683Z,100.00
2019-04-03T22:56:16.848Z,100.00
2019-04-03T22:58:46.871Z,100.00
2019-04-03T23:01:16.773Z,100.00
2019-04-03T23:03:49.033Z,100.00
2019-04-03T23:06:18.744Z,100.00
2019-04-03T23:08:48.906Z,100.00
2019-04-03T23:11:18.477Z,100.00
2019-04-03T23:13:47.988Z,100.00
2019-04-03T23:16:17.489Z,100.00
2019-04-03T23:18:47.512Z,100.00
2019-04-03T23:21:17.487Z,100.00
2019-04-03T23:23:46.987Z,100.00
2019-04-03T23:26:16.582Z,100.00
2019-04-03T23:28:46.078Z,100.00
2019-04-03T23:31:15.565Z,100.00
2019-04-03T23:33:45.939Z,100.00
2019-04-03T23:36:16.270Z,100.00
2019-04-03T23:38:45.779Z,100.00
2019-04-03T23:41:15.260Z,100.00
2019-04-03T23:43:44.804Z,100.00
2019-04-03T23:46:14.702Z,100.00
2019-04-03T23:48:44.775Z,100.00
2019-04-03T23:51:23.159Z,100.00
2019-04-03T23:53:45.494Z,100.00
2019-04-03T23:56:15.027Z,100.00
2019-04-03T23:58:44.552Z,100.00
